createdAt,value
2022-12-03T00:01:05.993Z,37.13
2022-12-03T00:03:36.693Z,36.93
2022-12-03T00:06:07.653Z,41.35
2022-12-03T00:08:36.972Z,39.83
2022-12-03T00:11:06.084Z,42.30
2022-12-03T00:13:35.464Z,40.50
2022-12-03T00:16:04.646Z,34.95
2022-12-03T00:18:33.977Z,47.10
2022-12-03T00:21:02.936Z,38.50
2022-12-03T00:23:38.529Z,39.65
2022-12-03T00:26:10.683Z,36.10
2022-12-03T00:28:40.107Z,33.97
2022-12-03T00:31:09.220Z,43.08
2022-12-03T00:33:38.578Z,41.07
2022-12-03T00:36:08.334Z,41.33
2022-12-03T00:38:39.049Z,42.60
2022-12-03T00:43:37.195Z,34.75
2022-12-03T00:46:06.339Z,39.22
2022-12-03T00:48:35.704Z,41.73
2022-12-03T00:51:04.938Z,36.75
2022-12-03T00:53:34.161Z,34.67
2022-12-03T00:56:04.591Z,38.90
2022-12-03T00:58:33.980Z,42.22
2022-12-03T01:01:03.042Z,48.05
2022-12-03T01:03:32.337Z,34.53
2022-12-03T01:06:02.033Z,40.60
2022-12-03T01:08:31.467Z,40.57
2022-12-03T01:11:00.413Z,39.25
2022-12-03T01:13:31.129Z,41.65
2022-12-03T01:18:29.387Z,36.88
2022-12-03T01:20:58.462Z,36.78
2022-12-03T01:23:27.795Z,39.90
2022-12-03T01:25:56.841Z,38.60
2022-12-03T01:28:26.907Z,41.05
2022-12-03T01:31:14.907Z,40.40
2022-12-03T01:33:44.215Z,43.90
2022-12-03T01:36:13.292Z,38.47
2022-12-03T01:38:42.600Z,38.37
2022-12-03T01:41:12.145Z,36.55
2022-12-03T01:43:41.600Z,34.20
2022-12-03T01:46:13.837Z,35.70
2022-12-03T01:48:43.938Z,38.90
2022-12-03T01:51:14.093Z,42.30
2022-12-03T01:53:44.366Z,40.92
2022-12-03T01:56:15.608Z,33.42
2022-12-03T01:58:45.549Z,34.13
2022-12-03T02:01:18.233Z,38.20
2022-12-03T02:03:48.139Z,37.35
2022-12-03T02:06:20.044Z,42.03
2022-12-03T02:08:49.913Z,38.45
2022-12-03T02:11:25.105Z,41.70
2022-12-03T02:14:01.183Z,39.72
2022-12-03T02:16:32.022Z,31.85
2022-12-03T02:19:01.340Z,38.17
2022-12-03T02:21:37.063Z,39.20
2022-12-03T02:24:14.284Z,32.70
2022-12-03T02:26:44.728Z,37.25
2022-12-03T02:29:14.435Z,40.95
2022-12-03T02:31:44.631Z,37.00
2022-12-03T02:34:35.731Z,35.88
2022-12-03T02:39:37.722Z,35.58
2022-12-03T02:42:26.161Z,41.25
2022-12-03T02:45:00.647Z,42.17
2022-12-03T02:47:33.886Z,36.45
2022-12-03T02:50:03.702Z,34.25
2022-12-03T02:52:33.636Z,37.13
2022-12-03T02:55:05.887Z,41.28
2022-12-03T02:57:52.780Z,41.22
2022-12-03T03:00:23.010Z,43.67
2022-12-03T03:02:52.247Z,40.78
2022-12-03T03:05:24.529Z,41.72
2022-12-03T03:07:53.898Z,42.97
2022-12-03T03:10:25.143Z,40.97
2022-12-03T03:12:57.209Z,34.67
2022-12-03T03:15:26.890Z,37.55
2022-12-03T03:17:56.232Z,36.87
2022-12-03T03:20:25.503Z,36.83
2022-12-03T03:22:54.739Z,37.28
2022-12-03T03:25:24.792Z,39.77
2022-12-03T03:27:56.109Z,39.22
2022-12-03T03:30:25.517Z,41.22
2022-12-03T03:32:54.864Z,35.45
2022-12-03T03:35:26.089Z,40.47
2022-12-03T03:37:56.175Z,38.45
2022-12-03T03:42:56.765Z,30.75
2022-12-03T03:45:29.357Z,34.95
2022-12-03T03:48:00.516Z,35.90
2022-12-03T03:50:31.733Z,32.55
2022-12-03T03:53:03.736Z,31.70
2022-12-03T03:55:33.653Z,35.22
2022-12-03T03:58:04.283Z,35.60
2022-12-03T04:00:33.847Z,39.63
2022-12-03T04:03:03.944Z,34.58
2022-12-03T04:05:33.799Z,34.50
2022-12-03T04:08:02.849Z,39.88
2022-12-03T04:10:49.377Z,35.00
2022-12-03T04:13:19.767Z,34.88
2022-12-03T04:15:49.122Z,37.40
2022-12-03T04:18:35.311Z,39.80
2022-12-03T04:21:22.258Z,39.10
2022-12-03T04:23:51.298Z,36.20
2022-12-03T04:26:38.078Z,34.33
2022-12-03T04:29:08.582Z,38.50
2022-12-03T04:31:56.155Z,32.83
2022-12-03T04:34:42.588Z,34.95
2022-12-03T04:37:12.153Z,39.33
2022-12-03T04:39:41.254Z,41.03
2022-12-03T04:42:10.708Z,42.07
2022-12-03T04:44:41.051Z,39.00
2022-12-03T04:47:13.960Z,35.53
2022-12-03T04:49:45.229Z,39.67
2022-12-03T04:52:16.634Z,35.20
2022-12-03T04:54:46.009Z,35.58
2022-12-03T04:57:15.486Z,38.65
2022-12-03T04:59:45.872Z,37.70
2022-12-03T05:02:15.211Z,35.63
2022-12-03T05:04:45.489Z,38.15
2022-12-03T05:07:14.846Z,41.07
2022-12-03T05:09:43.849Z,32.83
2022-12-03T05:12:13.137Z,36.28
2022-12-03T05:14:42.114Z,40.80
2022-12-03T05:17:12.931Z,37.40
2022-12-03T05:19:59.209Z,43.22
2022-12-03T05:22:28.486Z,36.58
2022-12-03T05:24:57.461Z,40.72
2022-12-03T05:27:26.803Z,41.40
2022-12-03T05:29:55.784Z,42.95
2022-12-03T05:32:26.586Z,40.65
2022-12-03T05:34:55.902Z,44.58
2022-12-03T05:37:25.404Z,39.72
2022-12-03T05:39:54.379Z,45.28
2022-12-03T05:42:41.076Z,40.50
2022-12-03T05:45:10.958Z,39.45
2022-12-03T05:47:41.582Z,44.42
2022-12-03T05:52:39.764Z,53.97
2022-12-03T05:55:10.090Z,40.00
2022-12-03T05:57:39.654Z,47.55
2022-12-03T06:00:14.400Z,47.83
2022-12-03T06:02:45.261Z,45.05
2022-12-03T06:05:15.472Z,42.42
2022-12-03T06:10:15.895Z,43.15
2022-12-03T06:12:45.631Z,37.08
2022-12-03T06:15:15.292Z,43.38
2022-12-03T06:17:46.072Z,41.95
2022-12-03T06:20:17.053Z,38.35
2022-12-03T06:22:46.584Z,36.58
2022-12-03T06:25:16.983Z,40.00
2022-12-03T06:27:46.852Z,36.40
2022-12-03T06:30:16.116Z,42.70
2022-12-03T06:32:46.825Z,43.58
2022-12-03T06:35:15.894Z,39.38
2022-12-03T06:37:45.204Z,36.43
2022-12-03T06:40:14.997Z,35.40
2022-12-03T06:42:44.653Z,41.78
2022-12-03T06:45:13.967Z,46.43
2022-12-03T06:47:43.349Z,40.00
2022-12-03T06:50:14.401Z,37.58
2022-12-03T06:52:43.739Z,43.97
2022-12-03T06:55:12.749Z,44.85
2022-12-03T06:57:42.007Z,37.67
2022-12-03T07:00:12.403Z,41.15
2022-12-03T07:02:41.929Z,41.92
2022-12-03T07:05:12.666Z,34.97
2022-12-03T07:07:42.024Z,45.25
2022-12-03T07:10:11.664Z,36.55
2022-12-03T07:12:41.024Z,44.72
2022-12-03T07:15:11.192Z,40.80
2022-12-03T07:17:40.525Z,40.92
2022-12-03T07:20:10.564Z,42.55
2022-12-03T07:25:10.825Z,40.38
2022-12-03T07:27:40.125Z,38.92
2022-12-03T07:30:16.791Z,40.80
2022-12-03T07:32:46.050Z,39.30
2022-12-03T07:35:15.363Z,41.88
2022-12-03T07:37:46.254Z,47.75
2022-12-03T07:40:15.771Z,47.13
2022-12-03T07:42:45.121Z,44.40
2022-12-03T07:45:14.107Z,46.22
2022-12-03T07:47:43.381Z,45.55
2022-12-03T07:50:13.276Z,41.15
2022-12-03T07:52:42.610Z,47.25
2022-12-03T07:55:13.919Z,46.03
2022-12-03T07:57:43.249Z,48.78
2022-12-03T08:00:13.493Z,43.65
2022-12-03T08:02:42.880Z,43.72
2022-12-03T08:05:12.117Z,42.85
2022-12-03T08:07:41.432Z,46.50
2022-12-03T08:10:12.383Z,44.10
2022-12-03T08:12:41.782Z,45.42
2022-12-03T08:15:16.133Z,39.28
2022-12-03T08:17:48.008Z,40.33
2022-12-03T08:20:20.377Z,42.03
2022-12-03T08:22:52.346Z,46.90
2022-12-03T08:25:25.730Z,42.90
2022-12-03T08:27:58.391Z,44.17
2022-12-03T08:30:27.439Z,42.05
2022-12-03T08:32:59.052Z,47.17
2022-12-03T08:35:31.809Z,38.92
2022-12-03T08:38:06.821Z,37.63
2022-12-03T08:40:40.159Z,41.05
2022-12-03T08:43:17.532Z,40.55
2022-12-03T08:45:49.767Z,38.42
2022-12-03T08:48:42.819Z,38.92
2022-12-03T08:51:21.316Z,36.05
2022-12-03T08:53:56.674Z,37.65
2022-12-03T08:56:31.949Z,37.42
2022-12-03T08:59:02.502Z,40.17
2022-12-03T09:01:40.466Z,39.03
2022-12-03T09:04:28.731Z,39.00
2022-12-03T09:06:58.565Z,42.03
2022-12-03T09:09:27.982Z,43.22
2022-12-03T09:11:58.472Z,40.75
2022-12-03T09:14:27.817Z,41.55
2022-12-03T09:16:57.216Z,47.05
2022-12-03T09:19:30.946Z,45.05
2022-12-03T09:22:00.026Z,42.38
2022-12-03T09:24:29.483Z,45.73
2022-12-03T09:26:59.889Z,45.85
2022-12-03T09:29:29.273Z,44.85
2022-12-03T09:31:58.271Z,40.08
2022-12-03T09:34:27.757Z,43.67
2022-12-03T09:36:56.753Z,47.92
2022-12-03T09:39:26.074Z,49.00
2022-12-03T09:41:55.858Z,43.15
2022-12-03T09:44:27.280Z,49.25
2022-12-03T09:46:59.925Z,50.00
2022-12-03T09:49:31.475Z,47.65
2022-12-03T09:52:02.981Z,47.42
2022-12-03T09:54:33.414Z,48.92
2022-12-03T09:57:04.838Z,45.17
2022-12-03T09:59:36.275Z,49.55
2022-12-03T10:02:12.230Z,48.55
2022-12-03T10:04:42.113Z,48.15
2022-12-03T10:07:11.623Z,48.03
2022-12-03T10:09:41.061Z,45.25
2022-12-03T10:12:14.133Z,51.08
2022-12-03T10:14:45.160Z,49.85
2022-12-03T10:17:14.334Z,51.30
2022-12-03T10:19:44.774Z,54.33
2022-12-03T10:22:14.560Z,54.78
2022-12-03T10:24:45.022Z,53.37
2022-12-03T10:30:20.357Z,52.00
2022-12-03T10:32:50.986Z,56.03
2022-12-03T10:35:22.602Z,60.38
2022-12-03T10:38:02.678Z,55.45
2022-12-03T10:43:16.027Z,46.38
2022-12-03T10:45:48.380Z,53.60
2022-12-03T10:48:20.132Z,54.17
2022-12-03T10:50:52.077Z,58.45
2022-12-03T10:53:23.696Z,53.70
2022-12-03T10:55:58.793Z,51.13
2022-12-03T10:58:29.214Z,54.53
2022-12-03T11:01:03.491Z,58.78
2022-12-03T11:03:36.741Z,57.55
2022-12-03T11:06:06.565Z,53.10
2022-12-03T11:08:37.925Z,58.55
2022-12-03T11:11:09.562Z,55.15
2022-12-03T11:13:50.236Z,53.20
2022-12-03T11:17:08.960Z,55.45
2022-12-03T11:19:48.114Z,52.17
2022-12-03T11:22:41.784Z,56.90
2022-12-03T11:25:45.827Z,58.10
2022-12-03T11:28:55.421Z,57.03
2022-12-03T11:31:38.445Z,56.55
2022-12-03T11:34:49.946Z,67.63
2022-12-03T11:37:29.965Z,54.75
2022-12-03T11:40:21.801Z,56.53
2022-12-03T11:42:51.367Z,58.42
2022-12-03T11:45:30.740Z,60.70
2022-12-03T11:48:07.890Z,55.00
2022-12-03T11:50:40.609Z,57.42
2022-12-03T11:53:21.262Z,54.95
2022-12-03T11:56:06.156Z,58.33
2022-12-03T11:58:38.355Z,51.00
2022-12-03T12:01:09.464Z,51.00
2022-12-03T12:03:43.598Z,55.00
2022-12-03T12:09:03.979Z,52.90
2022-12-03T12:11:35.705Z,50.47
2022-12-03T12:14:06.216Z,51.40
2022-12-03T12:16:53.139Z,53.03
2022-12-03T12:19:40.207Z,49.58
2022-12-03T12:22:31.671Z,50.08
2022-12-03T12:25:03.640Z,54.75
2022-12-03T12:27:36.495Z,48.28
2022-12-03T12:30:08.645Z,53.85
2022-12-03T12:32:46.495Z,50.55
2022-12-03T12:35:20.584Z,52.90
2022-12-03T12:37:59.061Z,47.55
2022-12-03T12:40:33.598Z,48.17
2022-12-03T12:43:12.059Z,49.67
2022-12-03T12:48:22.233Z,48.67
2022-12-03T12:50:54.850Z,45.38
2022-12-03T12:53:25.513Z,49.70
2022-12-03T12:58:31.447Z,40.65
2022-12-03T13:01:05.551Z,46.83
2022-12-03T13:03:37.997Z,43.05
2022-12-03T13:08:55.874Z,52.58
2022-12-03T13:11:37.116Z,51.28
2022-12-03T13:14:17.440Z,54.45
2022-12-03T13:16:47.478Z,56.03
2022-12-03T13:19:24.103Z,67.53
2022-12-03T13:21:55.033Z,59.47
2022-12-03T13:24:32.484Z,66.47
2022-12-03T13:32:15.623Z,41.03
2022-12-03T13:34:46.785Z,45.50
2022-12-03T13:37:20.727Z,44.20
2022-12-03T13:39:52.230Z,40.80
2022-12-03T13:42:41.942Z,40.90
2022-12-03T13:45:35.711Z,40.20
2022-12-03T13:48:23.521Z,45.30
2022-12-03T13:50:58.991Z,45.45
2022-12-03T13:53:32.913Z,40.03
2022-12-03T13:56:16.892Z,42.63
2022-12-03T13:58:47.409Z,48.17
2022-12-03T14:01:16.963Z,40.13
2022-12-03T14:03:46.186Z,41.03
2022-12-03T14:06:15.667Z,46.77
2022-12-03T14:08:45.100Z,44.08
2022-12-03T14:11:34.545Z,49.72
2022-12-03T14:14:05.053Z,42.00
2022-12-03T14:16:34.455Z,47.08
2022-12-03T14:19:03.986Z,45.72
2022-12-03T14:21:33.299Z,43.35
2022-12-03T14:24:02.339Z,41.50
2022-12-03T14:26:34.289Z,40.25
2022-12-03T14:29:08.627Z,42.60
2022-12-03T14:31:38.394Z,42.25
2022-12-03T14:34:07.527Z,46.30
2022-12-03T14:36:36.900Z,51.30
2022-12-03T14:39:05.940Z,48.78
2022-12-03T14:41:53.052Z,46.93
2022-12-03T14:44:23.913Z,45.70
2022-12-03T14:46:57.134Z,46.03
2022-12-03T14:49:26.693Z,43.28
2022-12-03T14:51:56.076Z,44.27
2022-12-03T14:54:25.176Z,46.70
2022-12-03T14:56:54.934Z,40.53
2022-12-03T14:59:27.898Z,49.15
2022-12-03T15:01:57.966Z,54.58
2022-12-03T15:04:27.078Z,52.58
2022-12-03T15:06:56.591Z,49.83
2022-12-03T15:09:25.579Z,58.47
2022-12-03T15:11:54.963Z,53.35
2022-12-03T15:14:25.613Z,48.13
2022-12-03T15:16:58.395Z,45.67
2022-12-03T15:19:29.108Z,44.35
2022-12-03T15:21:59.696Z,41.60
2022-12-03T15:24:31.077Z,42.55
2022-12-03T15:27:00.407Z,51.35
2022-12-03T15:29:30.754Z,49.75
2022-12-03T15:32:01.076Z,51.45
2022-12-03T15:34:30.158Z,46.17
2022-12-03T15:36:59.754Z,49.45
2022-12-03T15:42:16.802Z,46.70
2022-12-03T15:44:49.597Z,53.25
2022-12-03T15:47:18.896Z,52.80
2022-12-03T15:49:49.144Z,53.45
2022-12-03T15:55:06.165Z,52.63
2022-12-03T15:57:35.557Z,55.97
2022-12-03T16:00:07.612Z,54.05
2022-12-03T16:02:47.513Z,56.60
2022-12-03T16:05:20.168Z,50.05
2022-12-03T16:07:49.630Z,48.63
2022-12-03T16:10:21.545Z,60.95
2022-12-03T16:12:50.881Z,60.55
2022-12-03T16:15:26.685Z,54.45
2022-12-03T16:17:56.785Z,50.40
2022-12-03T16:20:25.838Z,55.83
2022-12-03T16:22:56.211Z,59.20
2022-12-03T16:25:25.257Z,53.90
2022-12-03T16:27:54.540Z,58.60
2022-12-03T16:30:25.531Z,64.60
2022-12-03T16:32:54.940Z,58.83
2022-12-03T16:35:24.003Z,60.75
2022-12-03T16:37:53.322Z,60.57
2022-12-03T16:40:33.990Z,66.85
2022-12-03T16:43:04.304Z,65.53
2022-12-03T16:45:51.469Z,62.45
2022-12-03T16:48:27.196Z,62.70
2022-12-03T16:50:56.240Z,68.47
2022-12-03T16:53:25.503Z,68.03
2022-12-03T16:55:54.589Z,73.80
2022-12-03T16:58:23.989Z,65.97
2022-12-03T17:00:55.455Z,69.75
2022-12-03T17:03:28.979Z,62.58
2022-12-03T17:06:03.144Z,66.28
2022-12-03T17:08:32.891Z,64.63
2022-12-03T17:11:01.963Z,63.70
2022-12-03T17:13:31.409Z,57.95
2022-12-03T17:16:02.115Z,61.00
2022-12-03T17:18:31.538Z,66.03
2022-12-03T17:21:00.529Z,64.60
2022-12-03T17:23:29.971Z,63.03
2022-12-03T17:25:58.946Z,66.10
2022-12-03T17:28:28.268Z,67.53
2022-12-03T17:30:57.365Z,66.88
2022-12-03T17:33:29.212Z,62.17
2022-12-03T17:35:58.187Z,60.75
2022-12-03T17:38:27.579Z,64.05
2022-12-03T17:40:56.686Z,64.85
2022-12-03T17:43:26.139Z,71.82
2022-12-03T17:45:56.123Z,65.70
2022-12-03T17:48:25.443Z,68.40
2022-12-03T17:50:56.010Z,62.42
2022-12-03T17:53:25.364Z,60.80
2022-12-03T17:55:54.365Z,62.90
2022-12-03T17:58:23.654Z,68.43
2022-12-03T18:00:54.923Z,66.57
2022-12-03T18:03:28.010Z,63.33
2022-12-03T18:05:58.469Z,66.78
2022-12-03T18:08:28.987Z,68.60
2022-12-03T18:10:58.087Z,66.47
2022-12-03T18:13:27.634Z,65.57
2022-12-03T18:15:56.696Z,62.22
2022-12-03T18:18:26.107Z,60.10
2022-12-03T18:20:55.305Z,58.55
2022-12-03T18:23:26.067Z,66.07
2022-12-03T18:25:56.577Z,69.82
2022-12-03T18:28:26.217Z,67.05
2022-12-03T18:30:56.425Z,68.53
2022-12-03T18:33:26.392Z,64.03
2022-12-03T18:35:57.964Z,67.72
2022-12-03T18:38:31.754Z,71.22
2022-12-03T18:41:01.244Z,71.45
2022-12-03T18:43:30.796Z,70.68
2022-12-03T18:45:59.842Z,69.85
2022-12-03T18:48:29.087Z,74.55
2022-12-03T18:50:58.074Z,66.78
2022-12-03T18:53:28.735Z,69.65
2022-12-03T18:58:27.945Z,63.65
2022-12-03T19:00:57.069Z,70.60
2022-12-03T19:03:26.529Z,77.80
2022-12-03T19:05:55.722Z,81.20
2022-12-03T19:08:25.069Z,76.83
2022-12-03T19:10:59.426Z,72.05
2022-12-03T19:13:30.016Z,75.85
2022-12-03T19:16:02.172Z,75.63
2022-12-03T19:18:31.806Z,73.25
2022-12-03T19:21:00.920Z,74.75
2022-12-03T19:23:30.297Z,63.03
2022-12-03T19:26:02.722Z,60.60
2022-12-03T19:28:32.587Z,63.58
2022-12-03T19:31:03.319Z,72.10
2022-12-03T19:33:34.324Z,65.07
2022-12-03T19:36:05.299Z,63.60
2022-12-03T19:38:35.104Z,70.03
2022-12-03T19:41:07.581Z,67.33
2022-12-03T19:43:38.344Z,72.70
2022-12-03T19:48:39.549Z,71.13
2022-12-03T19:51:32.930Z,74.40
2022-12-03T19:53:58.797Z,74.70
2022-12-03T19:56:30.401Z,69.55
2022-12-03T19:59:00.398Z,81.68
2022-12-03T20:01:32.760Z,69.43
2022-12-03T20:04:05.285Z,70.57
2022-12-03T20:06:37.455Z,74.72
2022-12-03T20:09:09.138Z,76.78
2022-12-03T20:11:41.505Z,80.90
2022-12-03T20:14:14.737Z,79.43
2022-12-03T20:16:44.712Z,83.90
2022-12-03T20:19:15.914Z,91.53
2022-12-03T20:21:45.663Z,88.55
2022-12-03T20:24:17.129Z,87.47
2022-12-03T20:26:47.853Z,76.50
2022-12-03T20:29:17.978Z,82.85
2022-12-03T20:31:47.079Z,81.28
2022-12-03T20:34:16.467Z,77.70
2022-12-03T20:36:45.592Z,82.25
2022-12-03T20:39:16.054Z,92.60
2022-12-03T20:41:46.800Z,91.57
2022-12-03T20:44:16.263Z,88.05
2022-12-03T20:46:46.683Z,81.00
2022-12-03T20:49:16.233Z,74.43
2022-12-03T20:51:45.222Z,79.13
2022-12-03T20:54:14.465Z,74.35
2022-12-03T20:56:43.726Z,75.03
2022-12-03T20:59:16.993Z,75.20
2022-12-03T21:01:46.525Z,73.30
2022-12-03T21:04:18.049Z,74.63
2022-12-03T21:06:47.615Z,76.70
2022-12-03T21:09:18.944Z,76.90
2022-12-03T21:11:49.515Z,75.60
2022-12-03T21:14:20.397Z,69.22
2022-12-03T21:19:39.478Z,75.43
2022-12-03T21:22:08.649Z,65.30
2022-12-03T21:24:38.333Z,77.88
2022-12-03T21:27:07.386Z,73.20
2022-12-03T21:29:38.211Z,77.33
2022-12-03T21:32:07.213Z,72.43
2022-12-03T21:34:36.720Z,73.57
2022-12-03T21:37:06.049Z,74.78
2022-12-03T21:39:35.579Z,81.97
2022-12-03T21:42:34.275Z,74.60
2022-12-03T21:44:55.466Z,77.80
2022-12-03T21:47:24.613Z,82.70
2022-12-03T21:49:54.258Z,78.32
2022-12-03T21:52:24.278Z,78.23
2022-12-03T21:54:54.507Z,82.72
2022-12-03T21:57:24.434Z,93.18
2022-12-03T21:59:56.276Z,80.43
2022-12-03T22:02:28.038Z,86.65
2022-12-03T22:04:58.246Z,79.93
2022-12-03T22:07:27.454Z,81.25
2022-12-03T22:09:57.243Z,84.97
2022-12-03T22:12:27.060Z,88.38
2022-12-03T22:14:58.051Z,93.47
2022-12-03T22:17:27.840Z,80.18
2022-12-03T22:19:57.587Z,79.57
2022-12-03T22:22:26.710Z,87.45
2022-12-03T22:24:55.975Z,87.57
2022-12-03T22:27:25.063Z,79.85
2022-12-03T22:29:54.531Z,79.63
2022-12-03T22:32:25.177Z,87.07
2022-12-03T22:34:54.529Z,74.80
2022-12-03T22:37:23.522Z,77.78
2022-12-03T22:39:53.221Z,82.50
2022-12-03T22:42:22.873Z,74.55
2022-12-03T22:44:52.234Z,75.45
2022-12-03T22:47:21.275Z,79.30
2022-12-03T22:49:52.636Z,83.95
2022-12-03T22:52:21.771Z,74.22
2022-12-03T22:54:51.288Z,67.60
2022-12-03T22:57:20.376Z,74.88
2022-12-03T22:59:49.703Z,72.85
2022-12-03T23:02:18.672Z,79.63
2022-12-03T23:04:48.074Z,76.45
2022-12-03T23:07:18.462Z,76.15
2022-12-03T23:09:47.832Z,84.75
2022-12-03T23:12:16.924Z,79.85
2022-12-03T23:14:46.175Z,79.87
2022-12-03T23:17:15.243Z,69.75
2022-12-03T23:19:44.593Z,75.53
2022-12-03T23:22:13.551Z,72.68
2022-12-03T23:24:44.254Z,79.32
2022-12-03T23:29:42.306Z,83.60
2022-12-03T23:32:11.271Z,74.82
2022-12-03T23:34:40.687Z,79.60
2022-12-03T23:37:09.894Z,78.93
2022-12-03T23:39:39.273Z,80.00
2022-12-03T23:42:09.676Z,69.65
2022-12-03T23:44:38.926Z,75.57
2022-12-03T23:47:07.953Z,69.65
2022-12-03T23:49:37.393Z,66.22
2022-12-03T23:52:06.571Z,73.60
2022-12-03T23:54:37.245Z,77.75
2022-12-03T23:59:36.801Z,72.90
